Tylertown, MS

12:35 PM CDT on May 04, 2015 (GMT -0500)
McComb-Pike County-Lewis | | Change Station
CLOSE
Current Station
Airport
Location: McComb,
Elevation: 410 ft
Nearby Weather Stations

Elev 410 ft 31.18 °N, 90.47 °W | Updated 42 minutes ago

Partly Cloudy
Partly Cloudy
79 °F
Feels Like 79 °F
N
6
Wind Variable Wind from ESE

Today
High -- | Low -- °F
--% Chance of Precip.
Yesterday
High -- | Low -- °F
Precip. -- in
6:13 AM 7:41 PM
Full, 100% visible
Pressure 30.21 in
Visibility 10.0 miles
Clouds Scattered Clouds 3700 ft
Dew Point 63 °F
Humidity 58%
Rainfall 0.00 in
Snow Depth Not available.
UV 9 out of 12
Pollen 6.00 out of 12
Air Quality Not available.
Flu Activity No Activity
METAR KMCB 041653Z AUTO 12005KT 10SM SCT037 26/17 A3022 RMK AO2 SLP228 T02610172

More Conditions Fewer Conditions

Pressure 30.21 in
Visibility 10.0 miles
Clouds Scattered Clouds 3700 ft
Dew Point 63 °F
Humidity 58%
Rainfall 0.00 in
Snow Depth Not available.
UV 9 out of 12
Pollen 6.00 out of 12
Air Quality Not available.
Flu Activity No Activity
METAR KMCB 041653Z AUTO 12005KT 10SM SCT037 26/17 A3022 RMK AO2 SLP228 T02610172

More Conditions Fewer Conditions

Nepal has a long way to go to dig out and rebuild from a devastating earthquake. We have teamed up with several charities and organizations to make contributing to the relief effort as easy as possible.
How you can help: Portlight Strategies | Red Cross

10-Day Weather Forecast

Almanac

Astronomy

May. 04, 2015 Rise Set
Actual Time
Civil Twilight
Nautical Twilight
Astronomical Twilight
Moon
Length of Visible Light
Length of Day
Tomorrow will be .
, % of the Moon is Illuminated

Today's Extremes

State Highs State Lows

Community

WunderPhotos

Upload Photos

1,818,659 photos uploaded!

WunderBlogs® & News

Nearby

Air Quality

  Air Quality AQ Index Pollutant
Not available.

Snow Depth

Station Depth Elevation

Earthquake Activity

City Distance Mag. Time & Date
Minimum magnitude displayed is 2.5.

Coastal Water Temperatures

Place Temperature

Stations

Nearby Weather Stations

Station Location Temp. Windchill Dew Point Humidity Wind Precip. Elev Updated Type